sensor_id;sensor_type;location;lat;lon;timestamp;P1;durP1;ratioP1;P2;durP2;ratioP2
73337;SDS011;61575;49.908;35.556;2023-03-23T00:01:19;35.40;;;20.95;;
73337;SDS011;61575;49.908;35.556;2023-03-23T00:04:21;37.33;;;20.67;;
73337;SDS011;61575;49.908;35.556;2023-03-23T00:07:23;36.67;;;20.35;;
73337;SDS011;61575;49.908;35.556;2023-03-23T00:10:27;34.95;;;19.95;;
73337;SDS011;61575;49.908;35.556;2023-03-23T00:13:33;36.92;;;20.27;;
73337;SDS011;61575;49.908;35.556;2023-03-23T00:16:33;36.42;;;20.65;;
73337;SDS011;61575;49.908;35.556;2023-03-23T00:19:37;41.90;;;21.67;;
73337;SDS011;61575;49.908;35.556;2023-03-23T00:25:22;41.03;;;21.67;;
73337;SDS011;61575;49.908;35.556;2023-03-23T00:28:23;33.85;;;19.20;;
73337;SDS011;61575;49.908;35.556;2023-03-23T00:31:26;38.28;;;21.20;;
73337;SDS011;61575;49.908;35.556;2023-03-23T00:34:36;39.42;;;21.88;;
73337;SDS011;61575;49.908;35.556;2023-03-23T00:37:38;40.35;;;21.85;;
73337;SDS011;61575;49.908;35.556;2023-03-23T00:40:39;39.88;;;21.48;;
73337;SDS011;61575;49.908;35.556;2023-03-23T00:43:40;37.50;;;21.90;;
73337;SDS011;61575;49.908;35.556;2023-03-23T00:46:41;38.95;;;21.88;;
73337;SDS011;61575;49.908;35.556;2023-03-23T00:49:45;36.70;;;21.27;;
73337;SDS011;61575;49.908;35.556;2023-03-23T00:52:46;43.95;;;22.80;;
73337;SDS011;61575;49.908;35.556;2023-03-23T00:55:46;37.67;;;21.35;;
73337;SDS011;61575;49.908;35.556;2023-03-23T00:58:48;38.25;;;22.05;;
73337;SDS011;61575;49.908;35.556;2023-03-23T01:01:49;37.13;;;21.17;;
73337;SDS011;61575;49.908;35.556;2023-03-23T01:04:50;36.28;;;20.02;;
73337;SDS011;61575;49.908;35.556;2023-03-23T01:07:52;36.40;;;19.77;;
73337;SDS011;61575;49.908;35.556;2023-03-23T01:11:01;37.45;;;21.20;;
73337;SDS011;61575;49.908;35.556;2023-03-23T01:17:07;38.00;;;20.83;;
73337;SDS011;61575;49.908;35.556;2023-03-23T01:20:09;36.78;;;21.33;;
73337;SDS011;61575;49.908;35.556;2023-03-23T01:23:11;33.80;;;19.80;;
73337;SDS011;61575;49.908;35.556;2023-03-23T01:26:13;36.22;;;21.23;;
73337;SDS011;61575;49.908;35.556;2023-03-23T01:29:16;38.42;;;20.30;;
73337;SDS011;61575;49.908;35.556;2023-03-23T01:32:17;38.00;;;20.55;;
73337;SDS011;61575;49.908;35.556;2023-03-23T01:35:18;38.78;;;21.35;;
73337;SDS011;61575;49.908;35.556;2023-03-23T01:38:19;39.85;;;21.83;;
73337;SDS011;61575;49.908;35.556;2023-03-23T01:41:21;39.58;;;20.65;;
73337;SDS011;61575;49.908;35.556;2023-03-23T01:47:42;39.97;;;21.70;;
73337;SDS011;61575;49.908;35.556;2023-03-23T01:54:00;45.40;;;23.80;;
73337;SDS011;61575;49.908;35.556;2023-03-23T01:57:07;39.13;;;23.88;;
73337;SDS011;61575;49.908;35.556;2023-03-23T02:00:11;43.58;;;23.75;;
73337;SDS011;61575;49.908;35.556;2023-03-23T02:03:15;41.28;;;23.13;;
73337;SDS011;61575;49.908;35.556;2023-03-23T02:06:19;39.63;;;22.55;;
73337;SDS011;61575;49.908;35.556;2023-03-23T02:09:38;40.08;;;22.65;;
73337;SDS011;61575;49.908;35.556;2023-03-23T02:12:39;41.05;;;23.17;;
73337;SDS011;61575;49.908;35.556;2023-03-23T02:15:45;43.22;;;23.70;;
73337;SDS011;61575;49.908;35.556;2023-03-23T02:18:57;38.92;;;23.08;;
73337;SDS011;61575;49.908;35.556;2023-03-23T02:25:45;42.90;;;23.52;;
73337;SDS011;61575;49.908;35.556;2023-03-23T02:39:12;42.55;;;23.17;;
73337;SDS011;61575;49.908;35.556;2023-03-23T02:42:20;45.65;;;23.35;;
73337;SDS011;61575;49.908;35.556;2023-03-23T02:45:27;47.13;;;25.33;;
73337;SDS011;61575;49.908;35.556;2023-03-23T02:48:30;44.08;;;24.88;;
73337;SDS011;61575;49.908;35.556;2023-03-23T02:51:31;46.75;;;25.17;;
73337;SDS011;61575;49.908;35.556;2023-03-23T02:54:36;40.72;;;24.60;;
73337;SDS011;61575;49.908;35.556;2023-03-23T02:57:37;43.30;;;24.63;;
73337;SDS011;61575;49.908;35.556;2023-03-23T03:00:39;44.97;;;24.73;;
73337;SDS011;61575;49.908;35.556;2023-03-23T03:03:41;48.30;;;24.05;;
73337;SDS011;61575;49.908;35.556;2023-03-23T03:10:14;46.53;;;24.20;;
73337;SDS011;61575;49.908;35.556;2023-03-23T03:20:21;46.05;;;24.83;;
73337;SDS011;61575;49.908;35.556;2023-03-23T03:23:25;44.60;;;25.20;;
73337;SDS011;61575;49.908;35.556;2023-03-23T03:26:31;50.35;;;27.70;;
73337;SDS011;61575;49.908;35.556;2023-03-23T03:29:56;52.97;;;29.30;;
73337;SDS011;61575;49.908;35.556;2023-03-23T03:32:59;49.80;;;27.20;;
73337;SDS011;61575;49.908;35.556;2023-03-23T03:36:02;46.42;;;24.75;;
73337;SDS011;61575;49.908;35.556;2023-03-23T03:39:09;47.92;;;26.42;;
73337;SDS011;61575;49.908;35.556;2023-03-23T03:42:11;53.40;;;27.80;;
73337;SDS011;61575;49.908;35.556;2023-03-23T03:45:15;58.80;;;29.52;;
73337;SDS011;61575;49.908;35.556;2023-03-23T03:48:18;57.35;;;30.95;;
73337;SDS011;61575;49.908;35.556;2023-03-23T03:51:18;53.15;;;28.10;;
73337;SDS011;61575;49.908;35.556;2023-03-23T03:54:23;50.72;;;28.20;;
73337;SDS011;61575;49.908;35.556;2023-03-23T03:57:25;56.85;;;30.35;;
73337;SDS011;61575;49.908;35.556;2023-03-23T04:00:38;54.60;;;28.80;;
73337;SDS011;61575;49.908;35.556;2023-03-23T04:03:40;55.80;;;31.60;;
73337;SDS011;61575;49.908;35.556;2023-03-23T04:06:49;56.30;;;28.73;;
73337;SDS011;61575;49.908;35.556;2023-03-23T04:09:50;60.42;;;30.80;;
73337;SDS011;61575;49.908;35.556;2023-03-23T04:12:54;63.40;;;33.83;;
73337;SDS011;61575;49.908;35.556;2023-03-23T04:16:28;79.65;;;34.50;;
73337;SDS011;61575;49.908;35.556;2023-03-23T04:19:31;71.25;;;35.47;;
73337;SDS011;61575;49.908;35.556;2023-03-23T04:22:35;78.18;;;35.72;;
73337;SDS011;61575;49.908;35.556;2023-03-23T04:25:37;86.85;;;38.75;;
73337;SDS011;61575;49.908;35.556;2023-03-23T04:28:39;84.47;;;37.40;;
73337;SDS011;61575;49.908;35.556;2023-03-23T04:31:59;82.32;;;36.10;;
73337;SDS011;61575;49.908;35.556;2023-03-23T04:35:13;76.53;;;37.47;;
73337;SDS011;61575;49.908;35.556;2023-03-23T04:38:23;64.97;;;34.08;;
73337;SDS011;61575;49.908;35.556;2023-03-23T04:41:31;62.63;;;32.60;;
73337;SDS011;61575;49.908;35.556;2023-03-23T04:44:50;59.88;;;34.22;;
73337;SDS011;61575;49.908;35.556;2023-03-23T04:47:59;59.60;;;32.65;;
73337;SDS011;61575;49.908;35.556;2023-03-23T04:51:18;61.22;;;33.08;;
73337;SDS011;61575;49.908;35.556;2023-03-23T04:54:23;96.93;;;39.70;;
73337;SDS011;61575;49.908;35.556;2023-03-23T04:57:28;117.15;;;44.28;;
73337;SDS011;61575;49.908;35.556;2023-03-23T05:00:49;108.40;;;44.67;;
73337;SDS011;61575;49.908;35.556;2023-03-23T05:03:52;89.28;;;41.05;;
73337;SDS011;61575;49.908;35.556;2023-03-23T05:06:54;88.60;;;41.15;;
73337;SDS011;61575;49.908;35.556;2023-03-23T05:10:00;78.95;;;38.97;;
73337;SDS011;61575;49.908;35.556;2023-03-23T05:13:04;65.75;;;34.95;;
73337;SDS011;61575;49.908;35.556;2023-03-23T05:16:05;61.53;;;32.83;;
73337;SDS011;61575;49.908;35.556;2023-03-23T05:19:08;56.67;;;30.73;;
73337;SDS011;61575;49.908;35.556;2023-03-23T05:25:20;46.35;;;29.30;;
73337;SDS011;61575;49.908;35.556;2023-03-23T05:28:27;54.92;;;29.45;;
73337;SDS011;61575;49.908;35.556;2023-03-23T05:31:45;45.78;;;26.98;;
73337;SDS011;61575;49.908;35.556;2023-03-23T05:34:46;47.38;;;27.35;;
73337;SDS011;61575;49.908;35.556;2023-03-23T05:37:47;49.50;;;27.88;;
73337;SDS011;61575;49.908;35.556;2023-03-23T05:40:50;45.10;;;27.20;;
73337;SDS011;61575;49.908;35.556;2023-03-23T05:43:59;47.92;;;28.13;;
73337;SDS011;61575;49.908;35.556;2023-03-23T05:47:19;55.35;;;30.52;;
73337;SDS011;61575;49.908;35.556;2023-03-23T05:50:26;57.95;;;32.60;;
73337;SDS011;61575;49.908;35.556;2023-03-23T05:53:28;48.10;;;28.38;;
73337;SDS011;61575;49.908;35.556;2023-03-23T05:56:32;44.65;;;26.95;;
73337;SDS011;61575;49.908;35.556;2023-03-23T05:59:44;41.08;;;24.38;;
73337;SDS011;61575;49.908;35.556;2023-03-23T06:02:54;41.90;;;25.27;;
73337;SDS011;61575;49.908;35.556;2023-03-23T06:06:04;44.30;;;26.55;;
73337;SDS011;61575;49.908;35.556;2023-03-23T06:09:13;46.60;;;26.40;;
73337;SDS011;61575;49.908;35.556;2023-03-23T06:12:35;44.08;;;26.58;;
73337;SDS011;61575;49.908;35.556;2023-03-23T06:15:55;43.42;;;26.10;;
73337;SDS011;61575;49.908;35.556;2023-03-23T06:19:17;45.20;;;25.80;;
73337;SDS011;61575;49.908;35.556;2023-03-23T06:22:34;45.25;;;25.02;;
73337;SDS011;61575;49.908;35.556;2023-03-23T06:25:40;43.22;;;26.23;;
73337;SDS011;61575;49.908;35.556;2023-03-23T06:28:43;46.60;;;25.50;;
73337;SDS011;61575;49.908;35.556;2023-03-23T06:31:45;44.58;;;27.33;;
73337;SDS011;61575;49.908;35.556;2023-03-23T06:34:51;44.38;;;25.98;;
73337;SDS011;61575;49.908;35.556;2023-03-23T06:38:10;39.40;;;25.15;;
73337;SDS011;61575;49.908;35.556;2023-03-23T06:41:19;43.55;;;25.33;;
73337;SDS011;61575;49.908;35.556;2023-03-23T06:44:20;42.78;;;23.77;;
73337;SDS011;61575;49.908;35.556;2023-03-23T06:47:21;38.83;;;23.73;;
73337;SDS011;61575;49.908;35.556;2023-03-23T06:50:24;39.28;;;23.58;;
73337;SDS011;61575;49.908;35.556;2023-03-23T06:53:25;38.30;;;24.60;;
73337;SDS011;61575;49.908;35.556;2023-03-23T06:56:29;35.05;;;22.95;;
73337;SDS011;61575;49.908;35.556;2023-03-23T06:59:31;37.58;;;23.95;;
73337;SDS011;61575;49.908;35.556;2023-03-23T07:02:32;42.85;;;25.38;;
73337;SDS011;61575;49.908;35.556;2023-03-23T07:05:33;40.92;;;24.05;;
73337;SDS011;61575;49.908;35.556;2023-03-23T07:08:39;38.80;;;22.05;;
73337;SDS011;61575;49.908;35.556;2023-03-23T07:11:45;41.95;;;24.55;;
73337;SDS011;61575;49.908;35.556;2023-03-23T07:15:02;39.97;;;23.52;;
73337;SDS011;61575;49.908;35.556;2023-03-23T07:18:06;37.30;;;22.33;;
73337;SDS011;61575;49.908;35.556;2023-03-23T07:21:15;30.75;;;19.02;;
73337;SDS011;61575;49.908;35.556;2023-03-23T07:24:16;28.63;;;17.35;;
73337;SDS011;61575;49.908;35.556;2023-03-23T07:30:41;29.95;;;17.67;;
73337;SDS011;61575;49.908;35.556;2023-03-23T07:33:44;31.75;;;19.08;;
73337;SDS011;61575;49.908;35.556;2023-03-23T07:36:45;30.55;;;17.85;;
73337;SDS011;61575;49.908;35.556;2023-03-23T07:39:47;28.40;;;18.90;;
73337;SDS011;61575;49.908;35.556;2023-03-23T07:42:53;31.50;;;18.77;;
73337;SDS011;61575;49.908;35.556;2023-03-23T07:46:26;31.67;;;19.48;;
73337;SDS011;61575;49.908;35.556;2023-03-23T07:49:38;29.63;;;19.27;;
73337;SDS011;61575;49.908;35.556;2023-03-23T07:52:58;34.00;;;20.23;;
73337;SDS011;61575;49.908;35.556;2023-03-23T07:56:02;30.27;;;19.00;;
73337;SDS011;61575;49.908;35.556;2023-03-23T07:59:25;33.53;;;19.45;;
73337;SDS011;61575;49.908;35.556;2023-03-23T08:02:27;25.88;;;17.08;;
73337;SDS011;61575;49.908;35.556;2023-03-23T08:05:45;23.15;;;15.73;;
73337;SDS011;61575;49.908;35.556;2023-03-23T08:08:49;25.02;;;15.82;;
73337;SDS011;61575;49.908;35.556;2023-03-23T08:12:09;23.67;;;15.55;;
73337;SDS011;61575;49.908;35.556;2023-03-23T08:15:33;26.60;;;17.35;;
73337;SDS011;61575;49.908;35.556;2023-03-23T08:18:46;25.70;;;15.90;;
73337;SDS011;61575;49.908;35.556;2023-03-23T08:22:10;22.75;;;15.38;;
73337;SDS011;61575;49.908;35.556;2023-03-23T08:25:49;25.08;;;15.63;;
73337;SDS011;61575;49.908;35.556;2023-03-23T08:29:23;23.05;;;15.70;;
73337;SDS011;61575;49.908;35.556;2023-03-23T08:32:50;25.02;;;15.38;;
73337;SDS011;61575;49.908;35.556;2023-03-23T08:36:15;23.73;;;15.52;;
73337;SDS011;61575;49.908;35.556;2023-03-23T08:39:39;25.00;;;16.35;;
73337;SDS011;61575;49.908;35.556;2023-03-23T08:42:58;25.90;;;16.80;;
73337;SDS011;61575;49.908;35.556;2023-03-23T08:46:18;23.33;;;15.57;;
73337;SDS011;61575;49.908;35.556;2023-03-23T08:49:38;26.75;;;15.93;;
73337;SDS011;61575;49.908;35.556;2023-03-23T08:52:58;25.25;;;16.95;;
73337;SDS011;61575;49.908;35.556;2023-03-23T08:56:08;25.85;;;15.27;;
73337;SDS011;61575;49.908;35.556;2023-03-23T08:59:41;24.15;;;15.60;;
73337;SDS011;61575;49.908;35.556;2023-03-23T09:03:07;22.67;;;14.18;;
73337;SDS011;61575;49.908;35.556;2023-03-23T09:06:27;18.95;;;12.15;;
73337;SDS011;61575;49.908;35.556;2023-03-23T09:09:28;22.90;;;13.35;;
73337;SDS011;61575;49.908;35.556;2023-03-23T09:12:29;23.73;;;15.02;;
73337;SDS011;61575;49.908;35.556;2023-03-23T09:15:30;21.42;;;14.30;;
73337;SDS011;61575;49.908;35.556;2023-03-23T09:18:31;28.25;;;17.30;;
73337;SDS011;61575;49.908;35.556;2023-03-23T09:21:32;23.08;;;13.75;;
73337;SDS011;61575;49.908;35.556;2023-03-23T09:24:33;21.20;;;13.55;;
73337;SDS011;61575;49.908;35.556;2023-03-23T09:27:35;20.20;;;12.25;;
73337;SDS011;61575;49.908;35.556;2023-03-23T09:30:37;21.48;;;12.95;;
73337;SDS011;61575;49.908;35.556;2023-03-23T09:33:41;20.08;;;13.07;;
73337;SDS011;61575;49.908;35.556;2023-03-23T09:36:42;19.58;;;12.93;;
73337;SDS011;61575;49.908;35.556;2023-03-23T09:39:44;19.27;;;11.55;;
73337;SDS011;61575;49.908;35.556;2023-03-23T09:46:00;21.33;;;12.30;;
73337;SDS011;61575;49.908;35.556;2023-03-23T09:49:19;19.90;;;12.43;;
73337;SDS011;61575;49.908;35.556;2023-03-23T09:52:32;19.00;;;12.80;;
73337;SDS011;61575;49.908;35.556;2023-03-23T09:55:56;19.77;;;12.55;;
73337;SDS011;61575;49.908;35.556;2023-03-23T09:59:01;18.50;;;12.00;;
73337;SDS011;61575;49.908;35.556;2023-03-23T10:02:16;18.00;;;12.43;;
73337;SDS011;61575;49.908;35.556;2023-03-23T10:08:32;19.10;;;12.80;;
73337;SDS011;61575;49.908;35.556;2023-03-23T10:18:08;18.27;;;12.52;;
73337;SDS011;61575;49.908;35.556;2023-03-23T10:21:15;18.60;;;12.30;;
73337;SDS011;61575;49.908;35.556;2023-03-23T10:24:20;19.83;;;13.18;;
73337;SDS011;61575;49.908;35.556;2023-03-23T10:27:38;23.17;;;15.18;;
73337;SDS011;61575;49.908;35.556;2023-03-23T10:30:55;20.38;;;13.27;;
73337;SDS011;61575;49.908;35.556;2023-03-23T10:33:59;18.83;;;12.88;;
73337;SDS011;61575;49.908;35.556;2023-03-23T10:37:22;20.38;;;14.00;;
73337;SDS011;61575;49.908;35.556;2023-03-23T10:40:28;17.35;;;13.65;;
73337;SDS011;61575;49.908;35.556;2023-03-23T10:43:30;18.98;;;13.15;;
73337;SDS011;61575;49.908;35.556;2023-03-23T10:46:35;18.30;;;12.90;;
73337;SDS011;61575;49.908;35.556;2023-03-23T10:49:58;18.92;;;13.57;;
73337;SDS011;61575;49.908;35.556;2023-03-23T10:53:03;19.40;;;12.60;;
73337;SDS011;61575;49.908;35.556;2023-03-23T10:56:57;20.83;;;14.75;;
73337;SDS011;61575;49.908;35.556;2023-03-23T10:59:40;21.90;;;13.48;;
73337;SDS011;61575;49.908;35.556;2023-03-23T11:02:43;16.58;;;11.85;;
73337;SDS011;61575;49.908;35.556;2023-03-23T11:05:49;17.73;;;12.73;;
73337;SDS011;61575;49.908;35.556;2023-03-23T11:08:57;19.50;;;13.07;;
73337;SDS011;61575;49.908;35.556;2023-03-23T11:12:00;19.55;;;14.38;;
73337;SDS011;61575;49.908;35.556;2023-03-23T11:15:03;16.02;;;11.32;;
73337;SDS011;61575;49.908;35.556;2023-03-23T11:18:20;16.27;;;11.55;;
73337;SDS011;61575;49.908;35.556;2023-03-23T11:21:21;15.23;;;11.15;;
73337;SDS011;61575;49.908;35.556;2023-03-23T11:24:26;15.40;;;11.60;;
73337;SDS011;61575;49.908;35.556;2023-03-23T11:27:27;17.83;;;12.15;;
73337;SDS011;61575;49.908;35.556;2023-03-23T11:30:29;14.75;;;11.55;;
73337;SDS011;61575;49.908;35.556;2023-03-23T11:43:17;14.18;;;10.77;;
73337;SDS011;61575;49.908;35.556;2023-03-23T11:47:08;14.00;;;10.32;;
73337;SDS011;61575;49.908;35.556;2023-03-23T11:50:00;22.63;;;11.10;;
73337;SDS011;61575;49.908;35.556;2023-03-23T11:53:27;16.17;;;11.15;;
73337;SDS011;61575;49.908;35.556;2023-03-23T11:56:30;15.55;;;10.50;;
73337;SDS011;61575;49.908;35.556;2023-03-23T11:59:35;12.02;;;8.88;;
73337;SDS011;61575;49.908;35.556;2023-03-23T12:06:10;14.35;;;10.30;;
73337;SDS011;61575;49.908;35.556;2023-03-23T12:09:34;15.32;;;10.65;;
73337;SDS011;61575;49.908;35.556;2023-03-23T12:16:36;16.35;;;9.55;;
73337;SDS011;61575;49.908;35.556;2023-03-23T12:23:33;14.20;;;9.55;;
73337;SDS011;61575;49.908;35.556;2023-03-23T12:26:47;14.55;;;9.52;;
73337;SDS011;61575;49.908;35.556;2023-03-23T12:36:38;15.77;;;10.07;;
73337;SDS011;61575;49.908;35.556;2023-03-23T12:52:38;13.55;;;9.40;;
73337;SDS011;61575;49.908;35.556;2023-03-23T12:55:47;14.63;;;9.57;;
73337;SDS011;61575;49.908;35.556;2023-03-23T12:58:59;13.73;;;9.20;;
73337;SDS011;61575;49.908;35.556;2023-03-23T13:05:28;13.45;;;8.57;;
73337;SDS011;61575;49.908;35.556;2023-03-23T13:08:37;14.95;;;9.85;;
73337;SDS011;61575;49.908;35.556;2023-03-23T13:12:00;15.27;;;9.90;;
73337;SDS011;61575;49.908;35.556;2023-03-23T13:15:07;14.73;;;9.73;;
73337;SDS011;61575;49.908;35.556;2023-03-23T13:24:56;14.68;;;9.15;;
73337;SDS011;61575;49.908;35.556;2023-03-23T13:28:01;10.68;;;7.40;;
73337;SDS011;61575;49.908;35.556;2023-03-23T13:31:04;13.27;;;8.07;;
73337;SDS011;61575;49.908;35.556;2023-03-23T13:34:24;13.68;;;9.73;;
73337;SDS011;61575;49.908;35.556;2023-03-23T13:40:28;15.13;;;10.23;;
73337;SDS011;61575;49.908;35.556;2023-03-23T13:43:32;15.48;;;9.93;;
73337;SDS011;61575;49.908;35.556;2023-03-23T13:46:34;12.40;;;8.93;;
73337;SDS011;61575;49.908;35.556;2023-03-23T13:49:44;16.50;;;10.73;;
73337;SDS011;61575;49.908;35.556;2023-03-23T13:53:12;14.02;;;9.35;;
73337;SDS011;61575;49.908;35.556;2023-03-23T13:59:34;15.52;;;10.20;;
73337;SDS011;61575;49.908;35.556;2023-03-23T14:02:46;13.27;;;9.07;;
73337;SDS011;61575;49.908;35.556;2023-03-23T14:09:44;18.83;;;12.00;;
73337;SDS011;61575;49.908;35.556;2023-03-23T14:12:31;43.17;;;20.20;;
73337;SDS011;61575;49.908;35.556;2023-03-23T14:15:37;18.90;;;11.27;;
73337;SDS011;61575;49.908;35.556;2023-03-23T14:21:56;21.90;;;13.38;;
73337;SDS011;61575;49.908;35.556;2023-03-23T14:25:02;20.35;;;12.30;;
73337;SDS011;61575;49.908;35.556;2023-03-23T14:28:18;17.95;;;10.80;;
73337;SDS011;61575;49.908;35.556;2023-03-23T14:34:23;37.65;;;22.17;;
73337;SDS011;61575;49.908;35.556;2023-03-23T14:37:27;49.92;;;26.70;;
73337;SDS011;61575;49.908;35.556;2023-03-23T14:40:29;35.20;;;17.80;;
73337;SDS011;61575;49.908;35.556;2023-03-23T14:43:32;32.35;;;17.10;;
73337;SDS011;61575;49.908;35.556;2023-03-23T14:46:35;35.95;;;21.23;;
73337;SDS011;61575;49.908;35.556;2023-03-23T14:49:37;41.50;;;22.50;;
73337;SDS011;61575;49.908;35.556;2023-03-23T14:52:41;32.50;;;15.48;;
73337;SDS011;61575;49.908;35.556;2023-03-23T14:55:42;27.05;;;15.32;;
73337;SDS011;61575;49.908;35.556;2023-03-23T14:58:44;27.10;;;13.90;;
73337;SDS011;61575;49.908;35.556;2023-03-23T15:01:47;44.70;;;17.98;;
73337;SDS011;61575;49.908;35.556;2023-03-23T15:05:03;16.15;;;9.88;;
73337;SDS011;61575;49.908;35.556;2023-03-23T15:08:12;20.60;;;10.73;;
73337;SDS011;61575;49.908;35.556;2023-03-23T15:14:24;53.03;;;20.88;;
73337;SDS011;61575;49.908;35.556;2023-03-23T15:17:30;47.38;;;19.40;;
73337;SDS011;61575;49.908;35.556;2023-03-23T15:20:47;20.52;;;11.38;;
73337;SDS011;61575;49.908;35.556;2023-03-23T15:23:49;17.15;;;10.40;;
73337;SDS011;61575;49.908;35.556;2023-03-23T15:26:50;22.02;;;14.02;;
73337;SDS011;61575;49.908;35.556;2023-03-23T15:29:52;18.75;;;12.80;;
73337;SDS011;61575;49.908;35.556;2023-03-23T15:32:55;19.60;;;13.00;;
73337;SDS011;61575;49.908;35.556;2023-03-23T15:36:05;19.90;;;11.57;;
73337;SDS011;61575;49.908;35.556;2023-03-23T15:39:10;20.13;;;9.52;;
73337;SDS011;61575;49.908;35.556;2023-03-23T15:42:45;17.20;;;9.27;;
73337;SDS011;61575;49.908;35.556;2023-03-23T15:45:50;15.45;;;9.93;;
73337;SDS011;61575;49.908;35.556;2023-03-23T15:52:02;15.57;;;10.50;;
73337;SDS011;61575;49.908;35.556;2023-03-23T15:55:02;16.70;;;11.15;;
73337;SDS011;61575;49.908;35.556;2023-03-23T15:58:08;16.48;;;10.55;;
73337;SDS011;61575;49.908;35.556;2023-03-23T16:01:13;18.92;;;11.48;;
73337;SDS011;61575;49.908;35.556;2023-03-23T16:04:22;20.25;;;12.77;;
73337;SDS011;61575;49.908;35.556;2023-03-23T16:07:24;25.63;;;13.32;;
73337;SDS011;61575;49.908;35.556;2023-03-23T16:10:28;24.38;;;12.80;;
73337;SDS011;61575;49.908;35.556;2023-03-23T16:13:30;24.05;;;13.48;;
73337;SDS011;61575;49.908;35.556;2023-03-23T16:16:33;30.20;;;16.70;;
73337;SDS011;61575;49.908;35.556;2023-03-23T16:19:42;35.28;;;18.85;;
73337;SDS011;61575;49.908;35.556;2023-03-23T16:22:44;31.15;;;16.90;;
73337;SDS011;61575;49.908;35.556;2023-03-23T16:25:47;35.20;;;18.88;;
73337;SDS011;61575;49.908;35.556;2023-03-23T16:28:49;36.03;;;19.48;;
73337;SDS011;61575;49.908;35.556;2023-03-23T16:31:55;36.85;;;20.23;;
73337;SDS011;61575;49.908;35.556;2023-03-23T16:34:58;42.67;;;23.38;;
73337;SDS011;61575;49.908;35.556;2023-03-23T16:38:00;46.22;;;25.77;;
73337;SDS011;61575;49.908;35.556;2023-03-23T16:41:09;45.85;;;24.67;;
73337;SDS011;61575;49.908;35.556;2023-03-23T16:44:11;44.50;;;25.65;;
73337;SDS011;61575;49.908;35.556;2023-03-23T16:47:13;44.72;;;24.30;;
73337;SDS011;61575;49.908;35.556;2023-03-23T16:50:15;44.80;;;26.23;;
73337;SDS011;61575;49.908;35.556;2023-03-23T16:53:19;54.08;;;28.10;;
73337;SDS011;61575;49.908;35.556;2023-03-23T16:56:22;47.95;;;27.08;;
73337;SDS011;61575;49.908;35.556;2023-03-23T16:59:26;47.15;;;26.83;;
73337;SDS011;61575;49.908;35.556;2023-03-23T17:02:29;46.88;;;26.98;;
73337;SDS011;61575;49.908;35.556;2023-03-23T17:05:31;48.85;;;26.83;;
73337;SDS011;61575;49.908;35.556;2023-03-23T17:08:35;53.58;;;28.52;;
73337;SDS011;61575;49.908;35.556;2023-03-23T17:11:37;56.63;;;28.67;;
73337;SDS011;61575;49.908;35.556;2023-03-23T17:14:39;59.30;;;31.10;;
73337;SDS011;61575;49.908;35.556;2023-03-23T17:17:41;59.22;;;32.78;;
73337;SDS011;61575;49.908;35.556;2023-03-23T17:20:43;65.40;;;35.60;;
73337;SDS011;61575;49.908;35.556;2023-03-23T17:23:45;69.03;;;36.95;;
73337;SDS011;61575;49.908;35.556;2023-03-23T17:26:47;91.93;;;49.77;;
73337;SDS011;61575;49.908;35.556;2023-03-23T17:29:52;87.07;;;47.88;;
73337;SDS011;61575;49.908;35.556;2023-03-23T17:32:54;92.10;;;52.60;;
73337;SDS011;61575;49.908;35.556;2023-03-23T17:35:57;93.63;;;55.22;;
73337;SDS011;61575;49.908;35.556;2023-03-23T17:38:59;82.07;;;47.70;;
73337;SDS011;61575;49.908;35.556;2023-03-23T17:42:01;95.87;;;54.37;;
73337;SDS011;61575;49.908;35.556;2023-03-23T17:45:04;89.85;;;52.05;;
73337;SDS011;61575;49.908;35.556;2023-03-23T17:48:08;90.78;;;50.13;;
73337;SDS011;61575;49.908;35.556;2023-03-23T17:51:10;87.13;;;46.60;;
73337;SDS011;61575;49.908;35.556;2023-03-23T17:54:12;95.65;;;51.13;;
73337;SDS011;61575;49.908;35.556;2023-03-23T17:57:14;91.22;;;47.42;;
73337;SDS011;61575;49.908;35.556;2023-03-23T18:00:16;104.53;;;49.22;;
73337;SDS011;61575;49.908;35.556;2023-03-23T18:03:19;153.98;;;67.03;;
73337;SDS011;61575;49.908;35.556;2023-03-23T18:06:21;142.13;;;62.88;;
73337;SDS011;61575;49.908;35.556;2023-03-23T18:09:23;164.50;;;67.93;;
73337;SDS011;61575;49.908;35.556;2023-03-23T18:12:26;201.55;;;81.90;;
73337;SDS011;61575;49.908;35.556;2023-03-23T18:15:28;145.23;;;62.60;;
73337;SDS011;61575;49.908;35.556;2023-03-23T18:18:31;150.85;;;63.08;;
73337;SDS011;61575;49.908;35.556;2023-03-23T18:21:33;157.27;;;64.30;;
73337;SDS011;61575;49.908;35.556;2023-03-23T18:24:35;151.33;;;61.27;;
73337;SDS011;61575;49.908;35.556;2023-03-23T18:27:37;151.07;;;61.13;;
73337;SDS011;61575;49.908;35.556;2023-03-23T18:30:39;140.83;;;59.53;;
73337;SDS011;61575;49.908;35.556;2023-03-23T18:33:41;143.23;;;63.23;;
73337;SDS011;61575;49.908;35.556;2023-03-23T18:36:47;135.30;;;62.03;;
73337;SDS011;61575;49.908;35.556;2023-03-23T18:39:49;150.83;;;65.27;;
73337;SDS011;61575;49.908;35.556;2023-03-23T18:42:51;133.13;;;63.10;;
73337;SDS011;61575;49.908;35.556;2023-03-23T18:45:54;146.40;;;67.95;;
73337;SDS011;61575;49.908;35.556;2023-03-23T18:48:57;173.35;;;69.63;;
73337;SDS011;61575;49.908;35.556;2023-03-23T18:51:59;217.60;;;86.18;;
73337;SDS011;61575;49.908;35.556;2023-03-23T18:55:01;203.57;;;81.05;;
73337;SDS011;61575;49.908;35.556;2023-03-23T18:58:03;215.13;;;83.70;;
73337;SDS011;61575;49.908;35.556;2023-03-23T19:01:07;225.00;;;91.00;;
73337;SDS011;61575;49.908;35.556;2023-03-23T19:04:10;231.60;;;89.45;;
73337;SDS011;61575;49.908;35.556;2023-03-23T19:07:14;233.93;;;88.38;;
73337;SDS011;61575;49.908;35.556;2023-03-23T19:10:17;251.02;;;95.90;;
73337;SDS011;61575;49.908;35.556;2023-03-23T19:13:21;215.77;;;84.55;;
73337;SDS011;61575;49.908;35.556;2023-03-23T19:16:23;200.75;;;77.65;;
73337;SDS011;61575;49.908;35.556;2023-03-23T19:19:25;209.30;;;82.35;;
73337;SDS011;61575;49.908;35.556;2023-03-23T19:22:27;201.90;;;81.10;;
73337;SDS011;61575;49.908;35.556;2023-03-23T19:25:29;200.67;;;83.80;;
73337;SDS011;61575;49.908;35.556;2023-03-23T19:28:31;197.25;;;83.05;;
73337;SDS011;61575;49.908;35.556;2023-03-23T19:31:53;211.32;;;86.47;;
73337;SDS011;61575;49.908;35.556;2023-03-23T19:34:56;200.65;;;85.40;;
73337;SDS011;61575;49.908;35.556;2023-03-23T19:37:59;204.43;;;83.68;;
73337;SDS011;61575;49.908;35.556;2023-03-23T19:41:02;207.25;;;84.72;;
73337;SDS011;61575;49.908;35.556;2023-03-23T19:44:07;185.05;;;77.70;;
73337;SDS011;61575;49.908;35.556;2023-03-23T19:47:10;172.15;;;73.68;;
73337;SDS011;61575;49.908;35.556;2023-03-23T19:50:12;147.05;;;62.95;;
73337;SDS011;61575;49.908;35.556;2023-03-23T19:53:15;148.95;;;62.40;;
73337;SDS011;61575;49.908;35.556;2023-03-23T19:56:19;141.88;;;61.38;;
73337;SDS011;61575;49.908;35.556;2023-03-23T19:59:22;152.32;;;64.18;;
73337;SDS011;61575;49.908;35.556;2023-03-23T20:02:24;146.73;;;62.17;;
73337;SDS011;61575;49.908;35.556;2023-03-23T20:05:26;132.47;;;59.03;;